Time;durP1;ratioP1;P1;durP2;ratioP2;P2;SDS_P1;SDS_P2;PMS_P1;PMS_P2;Temp;Humidity;BMP_temperature;BMP_pressure;BME280_temperature;BME280_humidity;BME280_pressure;Samples;Min_cycle;Max_cycle;Signal;HPM_P1;HPM_P2
2024/01/04 00:00:31;;;;;;;;;;;13.70;99.90;;;;;;5091925;28;19913;-80
2024/01/04 00:02:57;;;;;;;;;;;13.70;99.90;;;;;;5090205;28;20116;-80
2024/01/04 00:05:24;;;;;;;;;;;13.80;99.90;;;;;;5090103;28;19908;-81
2024/01/04 00:07:49;;;;;;;;;;;13.80;99.90;;;;;;5091995;28;19945;-81
2024/01/04 00:10:17;;;;;;;;;;;13.80;99.90;;;;;;5092066;28;20010;-81
2024/01/04 00:12:44;;;;;;;;;;;13.80;99.90;;;;;;5091573;28;19957;-80
2024/01/04 00:15:10;;;;;;;;;;;13.80;99.90;;;;;;5091513;28;19916;-80
2024/01/04 00:17:36;;;;;;;;;;;13.80;99.90;;;;;;5091670;28;19999;-80
2024/01/04 00:20:02;;;;;;;;;;;13.80;99.90;;;;;;5090686;28;20367;-80
2024/01/04 00:22:31;;;;;;;;;;;13.80;99.90;;;;;;5091555;28;19953;-80
2024/01/04 00:24:57;;;;;;;;;;;13.80;99.90;;;;;;5091118;28;20423;-80
2024/01/04 00:27:22;;;;;;;;;;;13.70;99.90;;;;;;5091677;28;20054;-80
2024/01/04 00:29:48;;;;;;;;;;;13.80;99.90;;;;;;5089788;28;20040;-80
2024/01/04 00:32:14;;;;;;;;;;;13.80;99.90;;;;;;5089888;28;19960;-81
2024/01/04 00:34:41;;;;;;;;;;;13.80;99.90;;;;;;5091106;28;20437;-80
2024/01/04 00:37:07;;;;;;;;;;;13.90;99.90;;;;;;5089489;28;19956;-81
2024/01/04 00:39:33;;;;;;;;;;;14.00;99.90;;;;;;5089486;28;19981;-80
2024/01/04 00:41:59;;;;;;;;;;;14.00;99.90;;;;;;5091383;28;19915;-80
2024/01/04 00:44:24;;;;;;;;;;;14.10;99.90;;;;;;5089645;28;20015;-81
2024/01/04 00:46:51;;;;;;;;;;;14.00;99.90;;;;;;5091787;28;19955;-81
2024/01/04 00:49:18;;;;;;;;;;;14.10;99.90;;;;;;5091348;28;20005;-77
2024/01/04 00:51:43;;;;;;;;;;;14.10;99.90;;;;;;5091602;28;19955;-80
2024/01/04 00:54:10;;;;;;;;;;;14.10;99.90;;;;;;5091053;28;19994;-80
2024/01/04 00:56:36;;;;;;;;;;;14.10;99.90;;;;;;5091414;28;19908;-81
2024/01/04 00:59:03;;;;;;;;;;;14.10;99.90;;;;;;5091156;28;20070;-80
2024/01/04 01:01:30;;;;;;;;;;;14.10;99.90;;;;;;5091439;28;19915;-80
2024/01/04 01:03:57;;;;;;;;;;;14.10;99.90;;;;;;5090035;28;20257;-80
2024/01/04 01:06:23;;;;;;;;;;;14.10;99.90;;;;;;5090265;28;19935;-80
2024/01/04 01:08:49;;;;;;;;;;;14.10;99.90;;;;;;5089536;28;19909;-80
2024/01/04 01:11:15;;;;;;;;;;;14.10;99.90;;;;;;5089890;28;19951;-80
2024/01/04 01:13:40;;;;;;;;;;;14.10;99.90;;;;;;5090029;28;20382;-80
2024/01/04 01:16:08;;;;;;;;;;;14.10;99.90;;;;;;5089910;28;19913;-80
2024/01/04 01:18:34;;;;;;;;;;;14.20;99.90;;;;;;5089888;28;20355;-80
2024/01/04 01:21:01;;;;;;;;;;;14.20;99.90;;;;;;5088231;28;20228;-80
2024/01/04 01:23:27;;;;;;;;;;;14.20;99.90;;;;;;5089797;28;19956;-80
2024/01/04 01:25:53;;;;;;;;;;;14.20;99.90;;;;;;5089817;28;19916;-80
2024/01/04 01:28:19;;;;;;;;;;;14.20;99.90;;;;;;5089645;28;20348;-80
2024/01/04 01:30:45;;;;;;;;;;;14.20;99.90;;;;;;5091867;28;19908;-79
2024/01/04 01:33:10;;;;;;;;;;;14.20;99.90;;;;;;5093451;28;19909;-79
2024/01/04 01:35:36;;;;;;;;;;;14.20;99.90;;;;;;5093673;28;20018;-80
2024/01/04 01:38:02;;;;;;;;;;;14.20;99.90;;;;;;5093128;28;19977;-80
2024/01/04 01:40:28;;;;;;;;;;;14.20;99.90;;;;;;5093046;28;19908;-81
2024/01/04 01:42:54;;;;;;;;;;;14.20;99.90;;;;;;5093372;28;19908;-80
2024/01/04 01:45:20;;;;;;;;;;;14.20;99.90;;;;;;5091691;28;20395;-80
2024/01/04 01:47:47;;;;;;;;;;;14.20;99.90;;;;;;5093444;28;20387;-79
2024/01/04 01:50:13;;;;;;;;;;;14.20;99.90;;;;;;5091895;28;19935;-80
2024/01/04 01:52:39;;;;;;;;;;;14.10;99.90;;;;;;5093349;28;20263;-80
2024/01/04 01:55:07;;;;;;;;;;;14.10;99.90;;;;;;5092934;28;19926;-80
2024/01/04 01:57:33;;;;;;;;;;;14.10;99.90;;;;;;5093305;28;19912;-77
2024/01/04 01:59:59;;;;;;;;;;;14.10;99.90;;;;;;5093318;28;19954;-80
2024/01/04 02:02:26;;;;;;;;;;;13.90;99.90;;;;;;5092913;28;20284;-80
2024/01/04 02:04:52;;;;;;;;;;;13.80;99.90;;;;;;5092802;28;19908;-80
2024/01/04 02:07:17;;;;;;;;;;;13.70;99.90;;;;;;5092808;28;20309;-80
2024/01/04 02:09:43;;;;;;;;;;;13.60;99.90;;;;;;5093011;28;20374;-79
2024/01/04 02:12:15;;;;;;;;;;;13.60;99.90;;;;;;5092927;28;19908;-80
2024/01/04 02:14:41;;;;;;;;;;;13.60;99.90;;;;;;5093076;28;19916;-81
2024/01/04 02:17:07;;;;;;;;;;;13.60;99.90;;;;;;5091511;28;19919;-79
2024/01/04 02:19:33;;;;;;;;;;;13.60;99.90;;;;;;5093071;28;19920;-80
2024/01/04 02:21:59;;;;;;;;;;;13.60;99.90;;;;;;5092599;28;19908;-80
2024/01/04 02:24:25;;;;;;;;;;;13.60;99.90;;;;;;5092547;28;19930;-79
2024/01/04 02:26:51;;;;;;;;;;;13.60;99.90;;;;;;5090840;28;19916;-80
2024/01/04 02:29:17;;;;;;;;;;;13.60;99.90;;;;;;5090909;28;20012;-79
2024/01/04 02:31:43;;;;;;;;;;;13.60;99.90;;;;;;5092313;28;20056;-79
2024/01/04 02:34:09;;;;;;;;;;;13.60;99.90;;;;;;5092260;28;20012;-79
2024/01/04 02:36:35;;;;;;;;;;;13.60;99.90;;;;;;5092343;28;20011;-80
2024/01/04 02:39:01;;;;;;;;;;;13.60;99.90;;;;;;5091989;28;19917;-80
2024/01/04 02:41:27;;;;;;;;;;;13.60;99.90;;;;;;5091495;28;19908;-80
2024/01/04 02:43:53;;;;;;;;;;;13.70;99.90;;;;;;5092040;28;19999;-80
2024/01/04 02:46:18;;;;;;;;;;;13.70;99.90;;;;;;5090570;28;20052;-80
2024/01/04 02:48:44;;;;;;;;;;;13.60;99.90;;;;;;5092226;28;19927;-80
2024/01/04 02:51:10;;;;;;;;;;;13.60;99.90;;;;;;5090701;28;19912;-80
2024/01/04 02:53:36;;;;;;;;;;;13.60;99.90;;;;;;5091719;28;20340;-81
2024/01/04 02:56:02;;;;;;;;;;;13.60;99.90;;;;;;5090293;28;19912;-81
2024/01/04 02:58:28;;;;;;;;;;;13.60;99.90;;;;;;5092432;28;19963;-81
2024/01/04 03:00:54;;;;;;;;;;;13.60;99.90;;;;;;5091843;28;20316;-81
2024/01/04 03:03:20;;;;;;;;;;;13.60;99.90;;;;;;5091655;28;19962;-81
2024/01/04 03:05:46;;;;;;;;;;;13.60;99.90;;;;;;5091723;28;19949;-80
2024/01/04 03:08:11;;;;;;;;;;;13.70;99.90;;;;;;5091458;28;20293;-80
2024/01/04 03:10:39;;;;;;;;;;;13.70;99.90;;;;;;5091913;28;19909;-80
2024/01/04 03:13:06;;;;;;;;;;;13.60;99.90;;;;;;5089951;28;19954;-79
2024/01/04 03:15:32;;;;;;;;;;;13.60;99.90;;;;;;5091187;28;20096;-80
2024/01/04 03:17:58;;;;;;;;;;;13.60;99.90;;;;;;5090170;28;19915;-79
2024/01/04 03:20:24;;;;;;;;;;;13.60;99.90;;;;;;5091155;28;19908;-80
2024/01/04 03:22:50;;;;;;;;;;;13.60;99.90;;;;;;5091347;28;19971;-79
2024/01/04 03:25:16;;;;;;;;;;;13.60;99.90;;;;;;5090836;28;19908;-80
2024/01/04 03:27:43;;;;;;;;;;;13.50;99.90;;;;;;5091020;28;19912;-79
2024/01/04 03:30:10;;;;;;;;;;;13.50;99.90;;;;;;5091327;28;19908;-80
2024/01/04 03:32:35;;;;;;;;;;;13.50;99.90;;;;;;5092053;28;19958;-82
2024/01/04 03:35:01;;;;;;;;;;;13.50;99.90;;;;;;5090264;28;19951;-80
2024/01/04 03:37:27;;;;;;;;;;;13.50;99.90;;;;;;5091568;28;19920;-80
2024/01/04 03:39:53;;;;;;;;;;;13.50;99.90;;;;;;5089759;28;19985;-80
2024/01/04 03:42:25;;;;;;;;;;;13.50;99.90;;;;;;5091276;28;19908;-80
2024/01/04 03:44:51;;;;;;;;;;;13.50;99.90;;;;;;5089481;28;20263;-80
2024/01/04 03:47:16;;;;;;;;;;;13.50;99.90;;;;;;5091090;28;20035;-80
2024/01/04 03:49:42;;;;;;;;;;;13.50;99.90;;;;;;5090860;28;19908;-80
2024/01/04 03:52:08;;;;;;;;;;;13.40;99.90;;;;;;5091060;28;20275;-81
2024/01/04 03:54:34;;;;;;;;;;;13.40;99.90;;;;;;5089090;28;19912;-80
2024/01/04 03:57:00;;;;;;;;;;;13.30;99.90;;;;;;5091593;28;20283;-81
2024/01/04 03:59:26;;;;;;;;;;;13.30;99.90;;;;;;5091085;28;19908;-80
2024/01/04 04:01:51;;;;;;;;;;;13.30;99.90;;;;;;5091626;28;19932;-81
2024/01/04 04:04:17;;;;;;;;;;;13.30;99.90;;;;;;5090910;28;19909;-81
2024/01/04 04:06:43;;;;;;;;;;;13.30;99.90;;;;;;5091460;28;19954;-81
2024/01/04 04:09:09;;;;;;;;;;;13.30;99.90;;;;;;5091487;28;19971;-81
2024/01/04 04:11:35;;;;;;;;;;;13.20;99.90;;;;;;5091836;28;20348;-80
2024/01/04 04:14:01;;;;;;;;;;;13.20;99.90;;;;;;5091437;28;19912;-80
2024/01/04 04:16:27;;;;;;;;;;;13.20;99.90;;;;;;5089359;28;19908;-77
2024/01/04 04:18:53;;;;;;;;;;;13.30;99.90;;;;;;5091041;28;20250;-80
2024/01/04 04:21:19;;;;;;;;;;;13.30;99.90;;;;;;5090789;28;19920;-80
2024/01/04 04:23:49;;;;;;;;;;;13.30;99.90;;;;;;5091106;28;19908;-80
2024/01/04 04:26:31;;;;;;;;;;;13.30;99.90;;;;;;5091866;28;19914;-81
2024/01/04 04:28:57;;;;;;;;;;;13.40;99.90;;;;;;5092291;28;19995;-80
2024/01/04 04:31:23;;;;;;;;;;;13.30;99.90;;;;;;5090390;28;19944;-81
2024/01/04 04:33:49;;;;;;;;;;;13.40;99.90;;;;;;5090344;28;19965;-80
2024/01/04 04:36:18;;;;;;;;;;;13.50;99.90;;;;;;5090255;28;19916;-80
2024/01/04 04:38:44;;;;;;;;;;;13.50;99.90;;;;;;5091437;28;20372;-80
2024/01/04 04:41:10;;;;;;;;;;;13.60;99.90;;;;;;5092009;28;19908;-80
2024/01/04 04:43:36;;;;;;;;;;;13.70;99.90;;;;;;5090230;28;19951;-81
2024/01/04 04:46:09;;;;;;;;;;;13.70;99.90;;;;;;5091817;28;19908;-81
2024/01/04 04:48:36;;;;;;;;;;;13.80;99.90;;;;;;5091688;28;19908;-81
2024/01/04 04:51:02;;;;;;;;;;;13.70;99.90;;;;;;5090205;28;19908;-81
2024/01/04 04:53:28;;;;;;;;;;;13.80;99.90;;;;;;5090986;28;20382;-80
2024/01/04 04:55:53;;;;;;;;;;;13.90;99.90;;;;;;5092371;28;20394;-78
2024/01/04 04:58:19;;;;;;;;;;;13.90;99.90;;;;;;5092678;28;19909;-80
2024/01/04 05:00:45;;;;;;;;;;;13.90;99.90;;;;;;5091107;28;19924;-81
2024/01/04 05:03:11;;;;;;;;;;;14.00;99.90;;;;;;5092583;28;20000;-80
2024/01/04 05:05:37;;;;;;;;;;;14.00;99.90;;;;;;5094830;28;19912;-81
2024/01/04 05:08:04;;;;;;;;;;;14.10;99.90;;;;;;5096554;28;19912;-80
2024/01/04 05:10:33;;;;;;;;;;;14.00;99.90;;;;;;5094991;28;19977;-80
2024/01/04 05:12:59;;;;;;;;;;;14.00;99.90;;;;;;5096706;28;20005;-81
2024/01/04 05:15:25;;;;;;;;;;;14.00;99.90;;;;;;5094739;28;19919;-80
2024/01/04 05:17:51;;;;;;;;;;;14.00;99.90;;;;;;5095799;28;19951;-80
2024/01/04 05:20:17;;;;;;;;;;;14.00;99.90;;;;;;5097412;28;19958;-81
2024/01/04 05:22:43;;;;;;;;;;;14.10;99.90;;;;;;5097424;28;19982;-80
2024/01/04 05:25:11;;;;;;;;;;;14.00;99.90;;;;;;5096515;28;19912;-80
2024/01/04 05:27:38;;;;;;;;;;;14.00;99.90;;;;;;5097086;28;20421;-81
2024/01/04 05:30:07;;;;;;;;;;;14.10;99.90;;;;;;5095740;28;20352;-80
2024/01/04 05:32:35;;;;;;;;;;;14.10;99.90;;;;;;5097207;28;20311;-81
2024/01/04 05:35:02;;;;;;;;;;;14.10;99.90;;;;;;5096728;28;20444;-81
2024/01/04 05:37:27;;;;;;;;;;;14.10;99.90;;;;;;5096703;28;20368;-81
2024/01/04 05:39:53;;;;;;;;;;;14.10;99.90;;;;;;5096325;28;19919;-80
2024/01/04 05:42:19;;;;;;;;;;;14.10;99.90;;;;;;5096856;28;19908;-81
2024/01/04 05:44:45;;;;;;;;;;;14.10;99.90;;;;;;5096939;28;19908;-81
2024/01/04 05:47:11;;;;;;;;;;;14.10;99.90;;;;;;5096723;28;19922;-81
2024/01/04 05:49:37;;;;;;;;;;;14.10;99.90;;;;;;5096892;28;19954;-80
2024/01/04 05:52:03;;;;;;;;;;;14.00;99.90;;;;;;5096427;28;19992;-80
2024/01/04 05:54:29;;;;;;;;;;;13.90;99.90;;;;;;5096289;28;20344;-81
2024/01/04 05:56:55;;;;;;;;;;;13.90;99.90;;;;;;5096703;28;20276;-81
2024/01/04 05:59:24;;;;;;;;;;;13.90;99.90;;;;;;5096243;28;20299;-80
2024/01/04 06:01:51;;;;;;;;;;;13.90;99.90;;;;;;5094804;28;19985;-81
2024/01/04 06:04:17;;;;;;;;;;;14.00;99.90;;;;;;5099832;28;19919;-81
2024/01/04 06:06:42;;;;;;;;;;;13.90;99.90;;;;;;5097488;28;19961;-81
2024/01/04 06:09:08;;;;;;;;;;;14.00;99.90;;;;;;5095725;28;19908;-80
2024/01/04 06:11:38;;;;;;;;;;;14.00;99.90;;;;;;5094226;28;19908;-80
2024/01/04 06:14:05;;;;;;;;;;;14.00;99.90;;;;;;5078388;28;19920;-81
2024/01/04 06:16:32;;;;;;;;;;;14.00;99.90;;;;;;5094329;28;19908;-80
2024/01/04 06:18:59;;;;;;;;;;;14.00;99.90;;;;;;5095863;28;19913;-81
2024/01/04 06:21:25;;;;;;;;;;;14.00;99.90;;;;;;5095664;28;20421;-80
2024/01/04 06:23:51;;;;;;;;;;;14.00;99.90;;;;;;5094186;28;19908;-81
2024/01/04 06:26:20;;;;;;;;;;;14.00;99.90;;;;;;5096375;28;20441;-80
2024/01/04 06:28:45;;;;;;;;;;;14.00;99.90;;;;;;5095778;28;19916;-80
2024/01/04 06:31:11;;;;;;;;;;;14.00;99.90;;;;;;5094138;28;20292;-80
2024/01/04 06:33:37;;;;;;;;;;;14.00;99.90;;;;;;5095230;28;20352;-80
2024/01/04 06:36:03;;;;;;;;;;;14.00;99.90;;;;;;5095194;28;19920;-80
2024/01/04 06:38:29;;;;;;;;;;;14.00;99.90;;;;;;5094899;28;19967;-80
2024/01/04 06:40:58;;;;;;;;;;;14.00;99.90;;;;;;5095031;28;19951;-79
2024/01/04 06:43:27;;;;;;;;;;;14.00;99.90;;;;;;5094956;28;20328;-80
2024/01/04 06:45:53;;;;;;;;;;;14.10;99.90;;;;;;5095190;28;20021;-80
2024/01/04 06:48:19;;;;;;;;;;;14.20;99.90;;;;;;5094659;28;19945;-80
2024/01/04 06:50:45;;;;;;;;;;;14.30;99.90;;;;;;5092580;28;19924;-81
2024/01/04 06:53:14;;;;;;;;;;;14.50;99.90;;;;;;5094281;28;20057;-80
2024/01/04 06:55:40;;;;;;;;;;;14.80;99.90;;;;;;5094498;28;19916;-81
2024/01/04 06:58:06;;;;;;;;;;;15.20;99.90;;;;;;5093575;28;19915;-81
2024/01/04 07:00:31;;;;;;;;;;;15.60;99.90;;;;;;5094112;28;19914;-82
2024/01/04 07:02:58;;;;;;;;;;;16.20;99.90;;;;;;5092278;28;20363;-81
2024/01/04 07:05:24;;;;;;;;;;;16.70;99.90;;;;;;5093685;28;19912;-81
2024/01/04 07:07:50;;;;;;;;;;;17.20;99.90;;;;;;5093716;28;19908;-82
2024/01/04 07:10:16;;;;;;;;;;;17.70;99.90;;;;;;5093303;28;19909;-81
2024/01/04 07:12:43;;;;;;;;;;;18.30;99.90;;;;;;5093917;28;19916;-81
2024/01/04 07:15:09;;;;;;;;;;;18.40;99.90;;;;;;5093078;28;20244;-81
2024/01/04 07:17:35;;;;;;;;;;;18.70;99.90;;;;;;5093747;28;19908;-81
2024/01/04 07:20:03;;;;;;;;;;;19.00;99.90;;;;;;5094032;28;19930;-81
2024/01/04 07:22:29;;;;;;;;;;;18.90;99.90;;;;;;5092450;28;19908;-81
2024/01/04 07:24:56;;;;;;;;;;;19.20;99.90;;;;;;5093880;28;19919;-81
2024/01/04 07:27:22;;;;;;;;;;;19.30;99.90;;;;;;5093878;28;20034;-81
2024/01/04 07:29:48;;;;;;;;;;;19.80;99.90;;;;;;5094105;28;20324;-81
2024/01/04 07:32:18;;;;;;;;;;;19.90;99.90;;;;;;5094359;28;19916;-81
2024/01/04 07:34:44;;;;;;;;;;;20.50;99.90;;;;;;5094124;28;20387;-82
2024/01/04 07:37:10;;;;;;;;;;;21.20;99.90;;;;;;5094240;28;20421;-82
2024/01/04 07:39:36;;;;;;;;;;;21.90;99.90;;;;;;5094145;28;19919;-83
2024/01/04 07:42:02;;;;;;;;;;;22.30;99.90;;;;;;5093998;28;19908;-82
2024/01/04 07:44:28;;;;;;;;;;;22.50;99.90;;;;;;5094067;28;19943;-82
2024/01/04 07:46:53;;;;;;;;;;;22.60;99.90;;;;;;5093817;28;19912;-82
2024/01/04 07:49:19;;;;;;;;;;;22.60;99.90;;;;;;5094145;28;19908;-82
2024/01/04 07:51:45;;;;;;;;;;;22.70;99.90;;;;;;5094279;28;19908;-82
2024/01/04 07:54:11;;;;;;;;;;;22.70;99.90;;;;;;5093503;28;19912;-82
2024/01/04 07:56:38;;;;;;;;;;;22.50;99.90;;;;;;5093579;28;19949;-82
2024/01/04 07:59:04;;;;;;;;;;;22.00;99.90;;;;;;5093467;28;19971;-82
2024/01/04 08:01:30;;;;;;;;;;;21.40;99.90;;;;;;5093567;28;19908;-82
2024/01/04 08:03:55;;;;;;;;;;;21.20;99.90;;;;;;5093477;28;20021;-81
2024/01/04 08:06:21;;;;;;;;;;;21.00;99.90;;;;;;5093745;28;19915;-81
2024/01/04 08:08:48;;;;;;;;;;;20.60;99.90;;;;;;5091853;28;19915;-81
2024/01/04 08:11:14;;;;;;;;;;;20.30;99.90;;;;;;5093343;28;19912;-81
2024/01/04 08:13:40;;;;;;;;;;;20.10;99.90;;;;;;5093270;28;19909;-82
2024/01/04 08:16:07;;;;;;;;;;;20.00;99.90;;;;;;5093175;28;19927;-80
2024/01/04 08:18:35;;;;;;;;;;;20.00;99.90;;;;;;5093156;28;20369;-81
2024/01/04 08:21:02;;;;;;;;;;;19.70;99.90;;;;;;5093484;28;19915;-79
2024/01/04 08:23:28;;;;;;;;;;;19.50;99.90;;;;;;5093012;28;19943;-80
2024/01/04 08:25:56;;;;;;;;;;;19.20;99.90;;;;;;5093046;28;19912;-81
2024/01/04 08:28:22;;;;;;;;;;;19.30;99.90;;;;;;5092925;28;19908;-82
2024/01/04 08:30:51;;;;;;;;;;;19.40;99.90;;;;;;5091836;28;19915;-81
2024/01/04 08:33:17;;;;;;;;;;;19.40;99.90;;;;;;5092568;28;19909;-82
2024/01/04 08:35:43;;;;;;;;;;;19.40;99.90;;;;;;5091257;28;19916;-82
2024/01/04 08:38:08;;;;;;;;;;;19.40;99.90;;;;;;5092523;28;19927;-82
2024/01/04 08:40:36;;;;;;;;;;;19.30;99.90;;;;;;5091705;28;19954;-77
2024/01/04 08:43:03;;;;;;;;;;;19.30;99.90;;;;;;5092591;28;20253;-82
2024/01/04 08:45:29;;;;;;;;;;;19.10;99.90;;;;;;5091290;28;19908;-81
2024/01/04 08:47:55;;;;;;;;;;;18.90;99.90;;;;;;5093190;28;20000;-82
2024/01/04 08:50:24;;;;;;;;;;;18.70;99.90;;;;;;5092518;28;20040;-82
2024/01/04 08:52:51;;;;;;;;;;;18.70;99.90;;;;;;5090499;28;19959;-82
2024/01/04 08:55:19;;;;;;;;;;;18.60;99.90;;;;;;5091378;28;19916;-82
2024/01/04 08:57:45;;;;;;;;;;;18.70;99.90;;;;;;5091805;28;19908;-81
2024/01/04 09:00:11;;;;;;;;;;;18.60;99.90;;;;;;5091872;28;19963;-82
2024/01/04 09:02:37;;;;;;;;;;;18.60;99.90;;;;;;5091314;28;19976;-81
2024/01/04 09:05:04;;;;;;;;;;;18.50;99.90;;;;;;5090009;28;20069;-82
2024/01/04 09:07:30;;;;;;;;;;;18.60;99.90;;;;;;5090421;28;19919;-82
2024/01/04 09:09:55;;;;;;;;;;;18.70;99.90;;;;;;5091290;28;19908;-82
2024/01/04 09:12:21;;;;;;;;;;;18.80;99.90;;;;;;5090383;28;19915;-79
2024/01/04 09:14:47;;;;;;;;;;;19.10;99.90;;;;;;5091659;28;19916;-81
2024/01/04 09:17:13;;;;;;;;;;;19.10;99.90;;;;;;5090380;28;20011;-81
2024/01/04 09:19:42;;;;;;;;;;;19.20;99.90;;;;;;5090995;28;19908;-82
2024/01/04 09:22:08;;;;;;;;;;;19.20;99.90;;;;;;5090877;28;19938;-81
2024/01/04 09:24:34;;;;;;;;;;;19.20;99.90;;;;;;5091836;28;19912;-81
2024/01/04 09:27:00;;;;;;;;;;;19.20;99.90;;;;;;5093062;28;19908;-82
2024/01/04 09:29:26;;;;;;;;;;;19.10;99.90;;;;;;5092184;28;19954;-81
2024/01/04 09:31:56;;;;;;;;;;;19.00;99.90;;;;;;5092135;28;19915;-81
2024/01/04 09:34:24;;;;;;;;;;;19.00;99.90;;;;;;5090661;28;19912;-80
2024/01/04 09:36:50;;;;;;;;;;;19.00;99.90;;;;;;5091408;28;20360;-82
2024/01/04 09:39:17;;;;;;;;;;;19.30;99.90;;;;;;5091627;28;19935;-81
2024/01/04 09:41:50;;;;;;;;;;;19.10;99.90;;;;;;5091811;28;19986;-81
2024/01/04 09:44:16;;;;;;;;;;;19.10;99.90;;;;;;5091736;28;19908;-82
2024/01/04 09:46:42;;;;;;;;;;;19.30;99.90;;;;;;5091757;28;19908;-81
2024/01/04 09:49:09;;;;;;;;;;;19.40;99.90;;;;;;5091615;28;19953;-82
2024/01/04 09:51:38;;;;;;;;;;;19.50;99.90;;;;;;5092900;28;19908;-82
2024/01/04 09:54:11;;;;;;;;;;;19.70;99.90;;;;;;5093506;28;20443;-82
2024/01/04 09:56:42;;;;;;;;;;;19.80;99.90;;;;;;5095421;28;20320;-81
2024/01/04 09:59:08;;;;;;;;;;;19.90;99.90;;;;;;5095379;28;19908;-81
2024/01/04 10:01:35;;;;;;;;;;;19.60;99.90;;;;;;5095591;28;20004;-81
2024/01/04 10:04:06;;;;;;;;;;;19.50;99.90;;;;;;5095295;28;19908;-81
2024/01/04 10:06:33;;;;;;;;;;;19.50;99.90;;;;;;5094326;28;19908;-82
2024/01/04 10:09:19;;;;;;;;;;;19.60;99.90;;;;;;5095295;28;19916;-82
2024/01/04 10:11:54;;;;;;;;;;;19.50;99.90;;;;;;5094940;28;19908;-81
2024/01/04 10:14:20;;;;;;;;;;;19.60;99.90;;;;;;5095325;28;20008;-82
2024/01/04 10:16:49;;;;;;;;;;;19.60;99.90;;;;;;5095151;28;19908;-82
2024/01/04 10:19:15;;;;;;;;;;;19.70;99.90;;;;;;5093616;28;19912;-81
2024/01/04 10:21:41;;;;;;;;;;;19.70;99.90;;;;;;5094947;28;19966;-82
2024/01/04 10:24:07;;;;;;;;;;;19.40;99.90;;;;;;5094989;28;19908;-80
2024/01/04 10:26:33;;;;;;;;;;;19.30;99.90;;;;;;5094562;28;19908;-82
2024/01/04 10:28:59;;;;;;;;;;;19.50;99.90;;;;;;5094910;28;19909;-82
2024/01/04 10:31:26;;;;;;;;;;;19.40;99.90;;;;;;5094794;28;20321;-81
2024/01/04 10:33:59;;;;;;;;;;;19.70;99.90;;;;;;5094823;28;20362;-82
2024/01/04 10:36:28;;;;;;;;;;;19.70;99.90;;;;;;5094948;28;19916;-80
2024/01/04 10:39:02;;;;;;;;;;;19.70;99.90;;;;;;5094433;28;19920;-82
2024/01/04 10:41:29;;;;;;;;;;;19.70;99.90;;;;;;5095192;28;19912;-82
2024/01/04 10:44:07;;;;;;;;;;;19.80;99.90;;;;;;5095597;28;19931;-81
2024/01/04 10:46:34;;;;;;;;;;;19.90;99.90;;;;;;5094953;28;19912;-82
2024/01/04 10:49:04;;;;;;;;;;;19.90;99.90;;;;;;5094383;28;20368;-81
2024/01/04 10:51:31;;;;;;;;;;;19.60;99.90;;;;;;5094403;28;20007;-83
2024/01/04 10:53:58;;;;;;;;;;;19.30;99.90;;;;;;5094492;28;19916;-82
2024/01/04 10:56:24;;;;;;;;;;;19.30;99.90;;;;;;5094496;28;19932;-82
2024/01/04 10:58:50;;;;;;;;;;;19.30;99.90;;;;;;5094324;28;19974;-82
2024/01/04 11:01:17;;;;;;;;;;;19.10;99.90;;;;;;5094478;28;20396;-82
2024/01/04 11:03:43;;;;;;;;;;;19.10;99.90;;;;;;5087395;28;19909;-81
2024/01/04 11:06:09;;;;;;;;;;;19.00;99.90;;;;;;5073869;28;19962;-81
2024/01/04 11:08:35;;;;;;;;;;;18.90;99.90;;;;;;5073773;28;20356;-82
2024/01/04 11:11:02;;;;;;;;;;;18.90;99.90;;;;;;5073502;28;19908;-82
2024/01/04 11:13:31;;;;;;;;;;;18.90;99.90;;;;;;5073886;28;19909;-81
2024/01/04 11:15:58;;;;;;;;;;;18.90;99.90;;;;;;5073606;28;19916;-82
2024/01/04 11:18:42;;;;;;;;;;;19.00;99.90;;;;;;5074057;28;20026;-82
2024/01/04 11:21:21;;;;;;;;;;;19.00;99.90;;;;;;5073952;28;19915;-83
2024/01/04 11:23:46;;;;;;;;;;;19.00;99.90;;;;;;5074116;28;19915;-82
2024/01/04 11:26:22;;;;;;;;;;;19.00;99.90;;;;;;5073033;28;20624;-83
2024/01/04 11:28:48;;;;;;;;;;;19.00;99.90;;;;;;5074112;28;20020;-81
2024/01/04 11:31:15;;;;;;;;;;;18.80;99.90;;;;;;5073636;28;19921;-81
2024/01/04 11:33:41;;;;;;;;;;;18.90;99.90;;;;;;5079137;28;19909;-82
2024/01/04 11:36:08;;;;;;;;;;;18.70;99.90;;;;;;5094102;28;19916;-83
2024/01/04 11:38:34;;;;;;;;;;;18.60;99.90;;;;;;5083489;28;19927;-82
2024/01/04 11:41:01;;;;;;;;;;;18.40;99.90;;;;;;5072880;28;20360;-81
2024/01/04 11:43:38;;;;;;;;;;;18.40;99.90;;;;;;5072239;28;20345;-82
2024/01/04 11:46:21;;;;;;;;;;;18.50;99.90;;;;;;5072929;28;20364;-81
2024/01/04 11:49:00;;;;;;;;;;;18.50;99.90;;;;;;5073494;28;19980;-84
2024/01/04 11:51:38;;;;;;;;;;;18.50;99.90;;;;;;5071195;28;19950;-83
2024/01/04 11:54:04;;;;;;;;;;;18.50;99.90;;;;;;5073198;28;19920;-82
2024/01/04 11:56:30;;;;;;;;;;;18.50;99.90;;;;;;5073114;28;19913;-83
2024/01/04 11:59:09;;;;;;;;;;;18.50;99.90;;;;;;5073828;28;20314;-82
2024/01/04 12:01:36;;;;;;;;;;;18.60;99.90;;;;;;5071791;28;19920;-82
2024/01/04 12:04:12;;;;;;;;;;;18.60;99.90;;;;;;5080594;28;19916;-83
2024/01/04 12:06:41;;;;;;;;;;;18.70;99.90;;;;;;5094783;28;20287;-82
2024/01/04 12:09:07;;;;;;;;;;;18.70;99.90;;;;;;5093240;28;19953;-82
2024/01/04 12:11:34;;;;;;;;;;;18.70;99.90;;;;;;5093832;28;19915;-84
2024/01/04 12:14:05;;;;;;;;;;;18.70;99.90;;;;;;5091432;28;20007;-84
2024/01/04 12:16:31;;;;;;;;;;;18.90;99.90;;;;;;5091816;28;19908;-83
2024/01/04 12:18:57;;;;;;;;;;;18.90;99.90;;;;;;5093287;28;19991;-82
2024/01/04 12:21:24;;;;;;;;;;;18.90;99.90;;;;;;5093243;28;19908;-81
2024/01/04 12:23:51;;;;;;;;;;;18.80;99.90;;;;;;5093313;28;20002;-81
2024/01/04 12:26:18;;;;;;;;;;;18.90;99.90;;;;;;5093246;28;19908;-80
2024/01/04 12:28:44;;;;;;;;;;;19.00;99.90;;;;;;5093255;28;20391;-82
2024/01/04 12:31:13;;;;;;;;;;;18.80;99.90;;;;;;5093808;28;20245;-83
2024/01/04 12:33:42;;;;;;;;;;;18.80;99.90;;;;;;5093249;28;19954;-84
2024/01/04 12:36:08;;;;;;;;;;;18.80;99.90;;;;;;5093263;28;19922;-83
2024/01/04 12:38:34;;;;;;;;;;;18.80;99.90;;;;;;5093061;28;19920;-84
2024/01/04 12:41:00;;;;;;;;;;;18.80;99.90;;;;;;5093025;28;19957;-84
2024/01/04 12:43:26;;;;;;;;;;;18.80;99.90;;;;;;5091553;28;20010;-84
2024/01/04 12:46:00;;;;;;;;;;;18.80;99.90;;;;;;5091790;28;19955;-84
2024/01/04 12:48:26;;;;;;;;;;;18.90;99.90;;;;;;5092878;28;19940;-81
2024/01/04 12:50:55;;;;;;;;;;;18.90;99.90;;;;;;5092645;28;19908;-82
2024/01/04 12:53:21;;;;;;;;;;;19.10;99.90;;;;;;5092848;28;19948;-82
2024/01/04 12:55:47;;;;;;;;;;;19.30;99.90;;;;;;5093136;28;19999;-83
2024/01/04 12:58:13;;;;;;;;;;;19.50;99.90;;;;;;5091258;28;19915;-83
2024/01/04 13:00:38;;;;;;;;;;;19.60;99.90;;;;;;5092769;28;19908;-83
2024/01/04 13:03:04;;;;;;;;;;;19.70;99.90;;;;;;5092677;28;20034;-82
2024/01/04 13:05:30;;;;;;;;;;;19.80;99.90;;;;;;5092902;28;20014;-82
2024/01/04 13:07:56;;;;;;;;;;;19.70;99.90;;;;;;5091899;28;19935;-83
2024/01/04 13:10:22;;;;;;;;;;;19.50;99.90;;;;;;5092105;28;19908;-83
2024/01/04 13:12:48;;;;;;;;;;;19.60;99.90;;;;;;5092322;28;19915;-84
2024/01/04 13:15:14;;;;;;;;;;;19.60;99.90;;;;;;5092609;28;19966;-84
2024/01/04 13:17:39;;;;;;;;;;;19.50;99.90;;;;;;5091393;28;19908;-84
2024/01/04 13:20:07;;;;;;;;;;;19.40;99.90;;;;;;5093172;28;19919;-81
2024/01/04 13:22:33;;;;;;;;;;;19.70;99.90;;;;;;5092876;28;19961;-82
2024/01/04 13:24:59;;;;;;;;;;;19.80;99.90;;;;;;5092837;28;19908;-84
2024/01/04 13:27:28;;;;;;;;;;;19.80;99.90;;;;;;5096372;28;19965;-81
2024/01/04 13:29:55;;;;;;;;;;;19.60;99.90;;;;;;5096765;28;19931;-81
2024/01/04 13:32:22;;;;;;;;;;;19.50;99.90;;;;;;5096486;28;20206;-80
2024/01/04 13:34:49;;;;;;;;;;;19.10;99.90;;;;;;5094837;28;19916;-81
2024/01/04 13:37:15;;;;;;;;;;;19.20;99.90;;;;;;5096235;28;20396;-80
2024/01/04 13:39:41;;;;;;;;;;;19.30;99.90;;;;;;5094911;28;19995;-84
2024/01/04 13:42:08;;;;;;;;;;;19.10;99.90;;;;;;5094868;28;19908;-81
2024/01/04 13:44:34;;;;;;;;;;;19.30;99.90;;;;;;5096231;28;20025;-81
2024/01/04 13:47:00;;;;;;;;;;;19.30;99.90;;;;;;5094708;28;20045;-80
2024/01/04 13:49:26;;;;;;;;;;;19.30;99.90;;;;;;5095311;28;19916;-80
2024/01/04 13:51:52;;;;;;;;;;;19.20;99.90;;;;;;5095912;28;19915;-82
2024/01/04 13:54:18;;;;;;;;;;;19.10;99.90;;;;;;5093780;28;19955;-81
2024/01/04 13:56:45;;;;;;;;;;;18.90;99.90;;;;;;5095305;28;19916;-82
2024/01/04 13:59:10;;;;;;;;;;;18.90;99.90;;;;;;5082328;28;19963;-82
2024/01/04 14:01:36;;;;;;;;;;;19.10;99.90;;;;;;5073553;28;19912;-80
2024/01/04 14:04:02;;;;;;;;;;;19.20;99.90;;;;;;5081839;28;19907;-81
2024/01/04 14:06:28;;;;;;;;;;;19.40;99.90;;;;;;5093186;28;19908;-83
2024/01/04 14:08:55;;;;;;;;;;;19.60;99.90;;;;;;5095409;28;20349;-83
2024/01/04 14:11:22;;;;;;;;;;;19.60;99.90;;;;;;5094973;28;19912;-82
2024/01/04 14:13:48;;;;;;;;;;;19.60;99.90;;;;;;5093726;28;19908;-81